sensor_id;sensor_type;location;lat;lon;timestamp;P1;durP1;ratioP1;P2;durP2;ratioP2
27039;SDS011;14589;51.578;7.306;2022-11-15T00:00:57;11.32;;;6.88;;
27039;SDS011;14589;51.578;7.306;2022-11-15T00:03:40;18.10;;;7.00;;
27039;SDS011;14589;51.578;7.306;2022-11-15T00:06:24;10.50;;;6.10;;
27039;SDS011;14589;51.578;7.306;2022-11-15T00:09:17;9.18;;;5.30;;
27039;SDS011;14589;51.578;7.306;2022-11-15T00:12:01;9.45;;;5.53;;
27039;SDS011;14589;51.578;7.306;2022-11-15T00:14:45;9.32;;;5.65;;
27039;SDS011;14589;51.578;7.306;2022-11-15T00:17:29;11.20;;;6.30;;
27039;SDS011;14589;51.578;7.306;2022-11-15T00:23:19;9.75;;;5.93;;
27039;SDS011;14589;51.578;7.306;2022-11-15T00:26:09;11.90;;;5.72;;
27039;SDS011;14589;51.578;7.306;2022-11-15T00:28:58;9.07;;;5.88;;
27039;SDS011;14589;51.578;7.306;2022-11-15T00:31:42;9.10;;;5.53;;
27039;SDS011;14589;51.578;7.306;2022-11-15T00:34:36;10.65;;;6.07;;
27039;SDS011;14589;51.578;7.306;2022-11-15T00:37:21;12.43;;;6.13;;
27039;SDS011;14589;51.578;7.306;2022-11-15T00:40:08;11.35;;;6.65;;
27039;SDS011;14589;51.578;7.306;2022-11-15T00:42:53;10.82;;;5.78;;
27039;SDS011;14589;51.578;7.306;2022-11-15T00:45:41;13.18;;;5.38;;
27039;SDS011;14589;51.578;7.306;2022-11-15T00:48:25;13.77;;;5.75;;
27039;SDS011;14589;51.578;7.306;2022-11-15T00:51:11;11.30;;;6.40;;
27039;SDS011;14589;51.578;7.306;2022-11-15T00:53:56;11.40;;;5.90;;
27039;SDS011;14589;51.578;7.306;2022-11-15T00:59:28;10.48;;;5.93;;
27039;SDS011;14589;51.578;7.306;2022-11-15T01:02:21;10.32;;;5.55;;
27039;SDS011;14589;51.578;7.306;2022-11-15T01:05:06;10.75;;;6.00;;
27039;SDS011;14589;51.578;7.306;2022-11-15T01:07:55;8.88;;;5.70;;
27039;SDS011;14589;51.578;7.306;2022-11-15T01:10:39;10.75;;;5.78;;
27039;SDS011;14589;51.578;7.306;2022-11-15T01:13:24;7.85;;;5.43;;
27039;SDS011;14589;51.578;7.306;2022-11-15T01:16:19;10.85;;;5.75;;
27039;SDS011;14589;51.578;7.306;2022-11-15T01:19:05;11.43;;;5.75;;
27039;SDS011;14589;51.578;7.306;2022-11-15T01:21:50;8.43;;;5.28;;
27039;SDS011;14589;51.578;7.306;2022-11-15T01:24:35;10.98;;;6.22;;
27039;SDS011;14589;51.578;7.306;2022-11-15T01:27:22;7.72;;;5.05;;
27039;SDS011;14589;51.578;7.306;2022-11-15T01:30:12;8.57;;;5.63;;
27039;SDS011;14589;51.578;7.306;2022-11-15T01:32:57;12.00;;;5.28;;
27039;SDS011;14589;51.578;7.306;2022-11-15T01:35:43;12.38;;;5.75;;
27039;SDS011;14589;51.578;7.306;2022-11-15T01:38:28;12.05;;;5.97;;
27039;SDS011;14589;51.578;7.306;2022-11-15T01:41:16;11.10;;;5.68;;
27039;SDS011;14589;51.578;7.306;2022-11-15T01:50:22;11.27;;;4.72;;
27039;SDS011;14589;51.578;7.306;2022-11-15T01:53:49;8.95;;;5.47;;
27039;SDS011;14589;51.578;7.306;2022-11-15T01:56:41;11.75;;;5.72;;
27039;SDS011;14589;51.578;7.306;2022-11-15T01:59:30;12.77;;;5.70;;
27039;SDS011;14589;51.578;7.306;2022-11-15T02:02:15;8.70;;;5.40;;
27039;SDS011;14589;51.578;7.306;2022-11-15T02:04:59;10.60;;;5.97;;
27039;SDS011;14589;51.578;7.306;2022-11-15T02:07:43;11.57;;;5.45;;
27039;SDS011;14589;51.578;7.306;2022-11-15T02:10:29;8.82;;;5.78;;
27039;SDS011;14589;51.578;7.306;2022-11-15T02:13:16;9.05;;;5.10;;
27039;SDS011;14589;51.578;7.306;2022-11-15T02:16:07;10.20;;;5.60;;
27039;SDS011;14589;51.578;7.306;2022-11-15T02:37:47;8.95;;;5.18;;
27039;SDS011;14589;51.578;7.306;2022-11-15T02:40:45;8.95;;;5.03;;
27039;SDS011;14589;51.578;7.306;2022-11-15T02:46:49;11.00;;;5.03;;
27039;SDS011;14589;51.578;7.306;2022-11-15T02:50:02;10.20;;;5.20;;
27039;SDS011;14589;51.578;7.306;2022-11-15T02:52:52;12.73;;;5.32;;
27039;SDS011;14589;51.578;7.306;2022-11-15T02:55:46;14.13;;;5.43;;
27039;SDS011;14589;51.578;7.306;2022-11-15T03:08:12;9.05;;;5.35;;
27039;SDS011;14589;51.578;7.306;2022-11-15T03:10:55;9.57;;;5.50;;
27039;SDS011;14589;51.578;7.306;2022-11-15T03:16:51;8.52;;;5.50;;
27039;SDS011;14589;51.578;7.306;2022-11-15T03:22:36;12.93;;;6.07;;
27039;SDS011;14589;51.578;7.306;2022-11-15T03:25:24;13.38;;;6.18;;
27039;SDS011;14589;51.578;7.306;2022-11-15T03:28:10;10.43;;;5.72;;
27039;SDS011;14589;51.578;7.306;2022-11-15T03:30:57;12.52;;;5.97;;
27039;SDS011;14589;51.578;7.306;2022-11-15T03:33:41;11.60;;;6.68;;
27039;SDS011;14589;51.578;7.306;2022-11-15T03:36:26;10.07;;;5.72;;
27039;SDS011;14589;51.578;7.306;2022-11-15T03:39:11;8.63;;;5.75;;
27039;SDS011;14589;51.578;7.306;2022-11-15T03:45:31;12.00;;;6.32;;
27039;SDS011;14589;51.578;7.306;2022-11-15T03:48:17;10.70;;;5.35;;
27039;SDS011;14589;51.578;7.306;2022-11-15T03:51:03;10.30;;;5.68;;
27039;SDS011;14589;51.578;7.306;2022-11-15T03:53:48;14.73;;;6.60;;
27039;SDS011;14589;51.578;7.306;2022-11-15T03:56:32;10.82;;;5.80;;
27039;SDS011;14589;51.578;7.306;2022-11-15T03:59:22;10.45;;;6.35;;
27039;SDS011;14589;51.578;7.306;2022-11-15T04:02:07;9.55;;;5.72;;
27039;SDS011;14589;51.578;7.306;2022-11-15T04:04:54;7.07;;;5.22;;
27039;SDS011;14589;51.578;7.306;2022-11-15T04:07:41;9.55;;;5.65;;
27039;SDS011;14589;51.578;7.306;2022-11-15T04:10:29;11.15;;;5.82;;
27039;SDS011;14589;51.578;7.306;2022-11-15T04:13:12;8.73;;;5.82;;
27039;SDS011;14589;51.578;7.306;2022-11-15T04:15:56;8.90;;;5.13;;
27039;SDS011;14589;51.578;7.306;2022-11-15T04:18:40;7.57;;;5.20;;
27039;SDS011;14589;51.578;7.306;2022-11-15T04:21:25;9.85;;;5.75;;
27039;SDS011;14589;51.578;7.306;2022-11-15T04:24:28;9.57;;;5.30;;
27039;SDS011;14589;51.578;7.306;2022-11-15T04:27:13;8.65;;;5.63;;
27039;SDS011;14589;51.578;7.306;2022-11-15T04:29:57;9.23;;;5.47;;
27039;SDS011;14589;51.578;7.306;2022-11-15T04:35:30;9.35;;;5.40;;
27039;SDS011;14589;51.578;7.306;2022-11-15T04:38:14;9.85;;;5.72;;
27039;SDS011;14589;51.578;7.306;2022-11-15T04:43:48;8.88;;;5.05;;
27039;SDS011;14589;51.578;7.306;2022-11-15T04:46:34;9.27;;;4.97;;
27039;SDS011;14589;51.578;7.306;2022-11-15T04:49:18;12.10;;;5.05;;
27039;SDS011;14589;51.578;7.306;2022-11-15T04:52:02;14.02;;;5.80;;
27039;SDS011;14589;51.578;7.306;2022-11-15T04:54:46;9.20;;;5.45;;
27039;SDS011;14589;51.578;7.306;2022-11-15T04:57:30;8.88;;;4.93;;
27039;SDS011;14589;51.578;7.306;2022-11-15T05:00:15;11.07;;;5.47;;
27039;SDS011;14589;51.578;7.306;2022-11-15T05:03:00;11.23;;;5.38;;
27039;SDS011;14589;51.578;7.306;2022-11-15T05:06:03;14.10;;;6.07;;
27039;SDS011;14589;51.578;7.306;2022-11-15T05:08:47;9.13;;;5.55;;
27039;SDS011;14589;51.578;7.306;2022-11-15T05:11:36;7.38;;;4.93;;
27039;SDS011;14589;51.578;7.306;2022-11-15T05:14:22;8.70;;;5.00;;
27039;SDS011;14589;51.578;7.306;2022-11-15T05:17:10;13.05;;;5.38;;
27039;SDS011;14589;51.578;7.306;2022-11-15T05:19:55;8.23;;;5.38;;
27039;SDS011;14589;51.578;7.306;2022-11-15T05:22:39;7.90;;;5.53;;
27039;SDS011;14589;51.578;7.306;2022-11-15T05:25:27;7.32;;;5.15;;
27039;SDS011;14589;51.578;7.306;2022-11-15T05:28:12;11.70;;;5.75;;
27039;SDS011;14589;51.578;7.306;2022-11-15T05:31:10;10.32;;;5.00;;
27039;SDS011;14589;51.578;7.306;2022-11-15T05:33:55;6.97;;;4.85;;
27039;SDS011;14589;51.578;7.306;2022-11-15T05:36:44;11.18;;;5.45;;
27039;SDS011;14589;51.578;7.306;2022-11-15T05:39:31;8.75;;;5.38;;
27039;SDS011;14589;51.578;7.306;2022-11-15T05:42:15;8.18;;;5.57;;
27039;SDS011;14589;51.578;7.306;2022-11-15T05:45:00;8.57;;;5.18;;
27039;SDS011;14589;51.578;7.306;2022-11-15T05:47:46;12.50;;;5.30;;
27039;SDS011;14589;51.578;7.306;2022-11-15T05:50:31;10.90;;;5.30;;
27039;SDS011;14589;51.578;7.306;2022-11-15T05:55:59;7.80;;;4.93;;
27039;SDS011;14589;51.578;7.306;2022-11-15T05:58:43;8.48;;;5.50;;
27039;SDS011;14589;51.578;7.306;2022-11-15T06:01:27;8.52;;;5.40;;
27039;SDS011;14589;51.578;7.306;2022-11-15T06:04:11;8.82;;;5.45;;
27039;SDS011;14589;51.578;7.306;2022-11-15T06:06:58;7.45;;;5.38;;
27039;SDS011;14589;51.578;7.306;2022-11-15T06:09:43;9.23;;;6.20;;
27039;SDS011;14589;51.578;7.306;2022-11-15T06:12:27;6.32;;;4.88;;
27039;SDS011;14589;51.578;7.306;2022-11-15T06:15:11;7.20;;;5.10;;
27039;SDS011;14589;51.578;7.306;2022-11-15T06:17:56;7.15;;;5.30;;
27039;SDS011;14589;51.578;7.306;2022-11-15T06:20:43;9.77;;;5.22;;
27039;SDS011;14589;51.578;7.306;2022-11-15T06:23:27;8.68;;;5.65;;
27039;SDS011;14589;51.578;7.306;2022-11-15T06:28:55;9.93;;;5.35;;
27039;SDS011;14589;51.578;7.306;2022-11-15T06:31:39;7.95;;;3.85;;
27039;SDS011;14589;51.578;7.306;2022-11-15T06:34:23;8.38;;;5.25;;
27039;SDS011;14589;51.578;7.306;2022-11-15T06:37:07;9.32;;;5.32;;
27039;SDS011;14589;51.578;7.306;2022-11-15T06:39:51;8.95;;;4.90;;
27039;SDS011;14589;51.578;7.306;2022-11-15T06:42:36;8.32;;;5.55;;
27039;SDS011;14589;51.578;7.306;2022-11-15T06:45:20;8.40;;;5.50;;
27039;SDS011;14589;51.578;7.306;2022-11-15T06:48:04;8.23;;;5.05;;
27039;SDS011;14589;51.578;7.306;2022-11-15T06:50:55;7.53;;;4.38;;
27039;SDS011;14589;51.578;7.306;2022-11-15T06:53:40;6.82;;;4.60;;
27039;SDS011;14589;51.578;7.306;2022-11-15T06:56:25;8.20;;;4.35;;
27039;SDS011;14589;51.578;7.306;2022-11-15T07:02:12;6.28;;;4.22;;
27039;SDS011;14589;51.578;7.306;2022-11-15T07:07:50;5.35;;;3.70;;
27039;SDS011;14589;51.578;7.306;2022-11-15T07:10:38;5.82;;;3.85;;
27039;SDS011;14589;51.578;7.306;2022-11-15T07:13:26;7.40;;;3.40;;
27039;SDS011;14589;51.578;7.306;2022-11-15T07:16:11;4.05;;;3.20;;
27039;SDS011;14589;51.578;7.306;2022-11-15T07:18:58;5.28;;;3.45;;
27039;SDS011;14589;51.578;7.306;2022-11-15T07:21:44;5.10;;;3.53;;
27039;SDS011;14589;51.578;7.306;2022-11-15T07:24:28;5.88;;;3.35;;
27039;SDS011;14589;51.578;7.306;2022-11-15T07:27:14;3.85;;;2.95;;
27039;SDS011;14589;51.578;7.306;2022-11-15T07:29:59;4.05;;;3.10;;
27039;SDS011;14589;51.578;7.306;2022-11-15T07:35:47;4.97;;;2.40;;
27039;SDS011;14589;51.578;7.306;2022-11-15T07:38:35;3.20;;;2.38;;
27039;SDS011;14589;51.578;7.306;2022-11-15T07:41:19;3.10;;;2.15;;
27039;SDS011;14589;51.578;7.306;2022-11-15T07:44:04;2.33;;;2.10;;
27039;SDS011;14589;51.578;7.306;2022-11-15T07:46:48;3.08;;;2.00;;
27039;SDS011;14589;51.578;7.306;2022-11-15T07:49:32;2.10;;;1.80;;
27039;SDS011;14589;51.578;7.306;2022-11-15T07:52:16;2.20;;;1.70;;
27039;SDS011;14589;51.578;7.306;2022-11-15T07:55:03;2.05;;;1.88;;
27039;SDS011;14589;51.578;7.306;2022-11-15T07:57:47;3.45;;;2.00;;
27039;SDS011;14589;51.578;7.306;2022-11-15T08:00:31;5.63;;;2.00;;
27039;SDS011;14589;51.578;7.306;2022-11-15T08:03:16;3.72;;;2.05;;
27039;SDS011;14589;51.578;7.306;2022-11-15T08:06:00;3.25;;;1.70;;
27039;SDS011;14589;51.578;7.306;2022-11-15T08:08:46;2.75;;;2.08;;
27039;SDS011;14589;51.578;7.306;2022-11-15T08:11:31;2.35;;;1.70;;
27039;SDS011;14589;51.578;7.306;2022-11-15T08:14:15;2.70;;;1.50;;
27039;SDS011;14589;51.578;7.306;2022-11-15T08:17:02;2.63;;;1.80;;
27039;SDS011;14589;51.578;7.306;2022-11-15T08:19:46;2.72;;;1.30;;
27039;SDS011;14589;51.578;7.306;2022-11-15T08:22:33;8.93;;;1.92;;
27039;SDS011;14589;51.578;7.306;2022-11-15T08:25:20;2.58;;;1.60;;
27039;SDS011;14589;51.578;7.306;2022-11-15T08:28:06;2.78;;;1.77;;
27039;SDS011;14589;51.578;7.306;2022-11-15T08:30:51;2.08;;;1.50;;
27039;SDS011;14589;51.578;7.306;2022-11-15T08:36:19;1.73;;;1.40;;
27039;SDS011;14589;51.578;7.306;2022-11-15T08:39:03;3.65;;;1.60;;
27039;SDS011;14589;51.578;7.306;2022-11-15T08:41:49;3.95;;;1.50;;
27039;SDS011;14589;51.578;7.306;2022-11-15T08:44:35;4.72;;;1.60;;
27039;SDS011;14589;51.578;7.306;2022-11-15T08:47:19;2.72;;;1.65;;
27039;SDS011;14589;51.578;7.306;2022-11-15T08:50:04;4.05;;;1.52;;
27039;SDS011;14589;51.578;7.306;2022-11-15T08:55:37;2.40;;;1.88;;
27039;SDS011;14589;51.578;7.306;2022-11-15T08:58:21;3.08;;;1.20;;
27039;SDS011;14589;51.578;7.306;2022-11-15T09:01:06;2.92;;;1.60;;
27039;SDS011;14589;51.578;7.306;2022-11-15T09:06:35;2.63;;;1.77;;
27039;SDS011;14589;51.578;7.306;2022-11-15T09:09:18;2.30;;;1.50;;
27039;SDS011;14589;51.578;7.306;2022-11-15T09:12:03;1.80;;;1.52;;
27039;SDS011;14589;51.578;7.306;2022-11-15T09:14:47;1.50;;;1.40;;
27039;SDS011;14589;51.578;7.306;2022-11-15T09:17:31;2.17;;;1.10;;
27039;SDS011;14589;51.578;7.306;2022-11-15T09:20:15;2.35;;;0.88;;
27039;SDS011;14589;51.578;7.306;2022-11-15T09:23:00;1.88;;;1.30;;
27039;SDS011;14589;51.578;7.306;2022-11-15T09:25:46;3.70;;;1.42;;
27039;SDS011;14589;51.578;7.306;2022-11-15T09:28:32;1.92;;;1.27;;
27039;SDS011;14589;51.578;7.306;2022-11-15T09:31:20;2.13;;;0.90;;
27039;SDS011;14589;51.578;7.306;2022-11-15T09:34:03;3.03;;;1.23;;
27039;SDS011;14589;51.578;7.306;2022-11-15T09:36:47;2.22;;;1.13;;
27039;SDS011;14589;51.578;7.306;2022-11-15T09:39:31;2.72;;;1.35;;
27039;SDS011;14589;51.578;7.306;2022-11-15T09:46:00;2.10;;;1.30;;
27039;SDS011;14589;51.578;7.306;2022-11-15T09:56:51;4.72;;;0.90;;
27039;SDS011;14589;51.578;7.306;2022-11-15T10:01:53;2.75;;;1.00;;
27039;SDS011;14589;51.578;7.306;2022-11-15T10:04:26;1.08;;;0.90;;
27039;SDS011;14589;51.578;7.306;2022-11-15T10:06:58;3.85;;;1.20;;
27039;SDS011;14589;51.578;7.306;2022-11-15T10:09:33;1.75;;;1.13;;
27039;SDS011;14589;51.578;7.306;2022-11-15T10:12:06;2.85;;;0.90;;
27039;SDS011;14589;51.578;7.306;2022-11-15T10:14:32;2.30;;;0.80;;
27039;SDS011;14589;51.578;7.306;2022-11-15T10:25:40;2.55;;;1.00;;
27039;SDS011;14589;51.578;7.306;2022-11-15T10:41:23;1.40;;;0.80;;
27039;SDS011;14589;51.578;7.306;2022-11-15T10:44:17;1.65;;;1.00;;
27039;SDS011;14589;51.578;7.306;2022-11-15T10:49:25;1.63;;;1.10;;
27039;SDS011;14589;51.578;7.306;2022-11-15T10:54:54;3.92;;;0.88;;
27039;SDS011;14589;51.578;7.306;2022-11-15T10:57:54;1.85;;;1.33;;
27039;SDS011;14589;51.578;7.306;2022-11-15T11:10:36;1.42;;;1.00;;
27039;SDS011;14589;51.578;7.306;2022-11-15T11:15:40;1.73;;;1.02;;
27039;SDS011;14589;51.578;7.306;2022-11-15T11:18:12;1.20;;;0.93;;
27039;SDS011;14589;51.578;7.306;2022-11-15T11:20:49;0.80;;;0.80;;
27039;SDS011;14589;51.578;7.306;2022-11-15T11:23:32;1.02;;;0.90;;
27039;SDS011;14589;51.578;7.306;2022-11-15T11:34:15;2.50;;;0.90;;
27039;SDS011;14589;51.578;7.306;2022-11-15T11:47:50;3.05;;;1.08;;
27039;SDS011;14589;51.578;7.306;2022-11-15T11:50:21;0.90;;;0.90;;
27039;SDS011;14589;51.578;7.306;2022-11-15T11:55:42;2.75;;;0.90;;
27039;SDS011;14589;51.578;7.306;2022-11-15T12:00:52;1.55;;;1.00;;
27039;SDS011;14589;51.578;7.306;2022-11-15T12:11:48;1.33;;;1.00;;
27039;SDS011;14589;51.578;7.306;2022-11-15T12:17:08;0.88;;;0.70;;
27039;SDS011;14589;51.578;7.306;2022-11-15T12:19:35;2.20;;;0.75;;
27039;SDS011;14589;51.578;7.306;2022-11-15T12:22:06;2.80;;;1.00;;
27039;SDS011;14589;51.578;7.306;2022-11-15T12:29:59;1.40;;;0.80;;
27039;SDS011;14589;51.578;7.306;2022-11-15T12:35:05;2.20;;;0.90;;
27039;SDS011;14589;51.578;7.306;2022-11-15T12:37:53;0.70;;;0.60;;
27039;SDS011;14589;51.578;7.306;2022-11-15T12:40:29;1.27;;;0.73;;
27039;SDS011;14589;51.578;7.306;2022-11-15T12:45:43;2.03;;;0.85;;
27039;SDS011;14589;51.578;7.306;2022-11-15T12:50:56;0.70;;;0.70;;
27039;SDS011;14589;51.578;7.306;2022-11-15T12:58:27;2.60;;;0.88;;
27039;SDS011;14589;51.578;7.306;2022-11-15T13:01:06;5.72;;;1.10;;
27039;SDS011;14589;51.578;7.306;2022-11-15T13:06:37;2.45;;;0.82;;
27039;SDS011;14589;51.578;7.306;2022-11-15T13:12:11;4.53;;;0.90;;
27039;SDS011;14589;51.578;7.306;2022-11-15T13:15:01;4.25;;;0.63;;
27039;SDS011;14589;51.578;7.306;2022-11-15T13:20:20;2.95;;;0.88;;
27039;SDS011;14589;51.578;7.306;2022-11-15T13:23:01;2.03;;;0.80;;
27039;SDS011;14589;51.578;7.306;2022-11-15T13:30:48;2.08;;;0.80;;
27039;SDS011;14589;51.578;7.306;2022-11-15T13:33:20;2.90;;;0.90;;
27039;SDS011;14589;51.578;7.306;2022-11-15T13:39:03;6.03;;;0.80;;
27039;SDS011;14589;51.578;7.306;2022-11-15T13:41:34;0.95;;;0.60;;
27039;SDS011;14589;51.578;7.306;2022-11-15T13:44:25;6.57;;;1.00;;
27039;SDS011;14589;51.578;7.306;2022-11-15T13:47:05;2.97;;;0.82;;
27039;SDS011;14589;51.578;7.306;2022-11-15T13:49:35;3.63;;;0.90;;
27039;SDS011;14589;51.578;7.306;2022-11-15T13:52:00;2.83;;;1.00;;
27039;SDS011;14589;51.578;7.306;2022-11-15T13:57:11;1.80;;;0.80;;
27039;SDS011;14589;51.578;7.306;2022-11-15T13:59:49;1.75;;;0.80;;
27039;SDS011;14589;51.578;7.306;2022-11-15T14:02:35;2.58;;;0.60;;
27039;SDS011;14589;51.578;7.306;2022-11-15T14:05:22;5.15;;;1.00;;
27039;SDS011;14589;51.578;7.306;2022-11-15T14:08:02;1.80;;;0.80;;
27039;SDS011;14589;51.578;7.306;2022-11-15T14:10:37;3.17;;;0.85;;
27039;SDS011;14589;51.578;7.306;2022-11-15T14:13:10;2.25;;;0.80;;
27039;SDS011;14589;51.578;7.306;2022-11-15T14:16:18;1.92;;;0.90;;
27039;SDS011;14589;51.578;7.306;2022-11-15T14:18:47;4.72;;;0.95;;
27039;SDS011;14589;51.578;7.306;2022-11-15T14:21:14;2.90;;;0.85;;
27039;SDS011;14589;51.578;7.306;2022-11-15T14:26:40;2.17;;;0.80;;
27039;SDS011;14589;51.578;7.306;2022-11-15T14:34:44;1.73;;;1.25;;
27039;SDS011;14589;51.578;7.306;2022-11-15T14:37:46;4.05;;;1.30;;
27039;SDS011;14589;51.578;7.306;2022-11-15T14:40:06;0.95;;;0.70;;
27039;SDS011;14589;51.578;7.306;2022-11-15T14:42:35;2.45;;;0.93;;
27039;SDS011;14589;51.578;7.306;2022-11-15T14:45:09;3.80;;;1.13;;
27039;SDS011;14589;51.578;7.306;2022-11-15T14:47:45;4.88;;;0.90;;
27039;SDS011;14589;51.578;7.306;2022-11-15T14:50:16;2.30;;;1.25;;
27039;SDS011;14589;51.578;7.306;2022-11-15T14:52:43;7.03;;;1.95;;
27039;SDS011;14589;51.578;7.306;2022-11-15T15:00:26;4.75;;;1.40;;
27039;SDS011;14589;51.578;7.306;2022-11-15T15:02:52;2.08;;;1.00;;
27039;SDS011;14589;51.578;7.306;2022-11-15T15:05:21;3.33;;;1.45;;
27039;SDS011;14589;51.578;7.306;2022-11-15T15:07:50;4.18;;;1.60;;
27039;SDS011;14589;51.578;7.306;2022-11-15T15:12:52;2.50;;;1.20;;
27039;SDS011;14589;51.578;7.306;2022-11-15T15:15:46;2.47;;;1.55;;
27039;SDS011;14589;51.578;7.306;2022-11-15T15:18:12;4.78;;;1.70;;
27039;SDS011;14589;51.578;7.306;2022-11-15T15:20:41;2.40;;;1.60;;
27039;SDS011;14589;51.578;7.306;2022-11-15T15:23:16;3.08;;;1.40;;
27039;SDS011;14589;51.578;7.306;2022-11-15T15:25:42;2.15;;;1.60;;
27039;SDS011;14589;51.578;7.306;2022-11-15T15:28:12;4.15;;;1.98;;
27039;SDS011;14589;51.578;7.306;2022-11-15T15:30:38;4.15;;;1.98;;
27039;SDS011;14589;51.578;7.306;2022-11-15T15:33:04;6.10;;;2.33;;
27039;SDS011;14589;51.578;7.306;2022-11-15T15:35:37;3.90;;;1.83;;
27039;SDS011;14589;51.578;7.306;2022-11-15T15:38:09;3.28;;;1.70;;
27039;SDS011;14589;51.578;7.306;2022-11-15T15:40:37;5.13;;;1.60;;
27039;SDS011;14589;51.578;7.306;2022-11-15T15:43:03;3.65;;;1.80;;
27039;SDS011;14589;51.578;7.306;2022-11-15T15:45:28;2.47;;;1.55;;
27039;SDS011;14589;51.578;7.306;2022-11-15T15:47:55;1.80;;;1.50;;
27039;SDS011;14589;51.578;7.306;2022-11-15T15:52:49;3.53;;;1.45;;
27039;SDS011;14589;51.578;7.306;2022-11-15T15:55:16;2.75;;;1.58;;
27039;SDS011;14589;51.578;7.306;2022-11-15T15:57:44;3.20;;;1.50;;
27039;SDS011;14589;51.578;7.306;2022-11-15T16:00:11;2.55;;;1.52;;
27039;SDS011;14589;51.578;7.306;2022-11-15T16:02:39;3.22;;;1.40;;
27039;SDS011;14589;51.578;7.306;2022-11-15T16:05:05;1.77;;;1.30;;
27039;SDS011;14589;51.578;7.306;2022-11-15T16:07:32;3.05;;;1.60;;
27039;SDS011;14589;51.578;7.306;2022-11-15T16:09:57;2.20;;;1.30;;
27039;SDS011;14589;51.578;7.306;2022-11-15T16:12:30;3.83;;;1.77;;
27039;SDS011;14589;51.578;7.306;2022-11-15T16:14:59;3.30;;;1.30;;
27039;SDS011;14589;51.578;7.306;2022-11-15T16:17:26;4.20;;;1.52;;
27039;SDS011;14589;51.578;7.306;2022-11-15T16:19:55;3.85;;;1.48;;
27039;SDS011;14589;51.578;7.306;2022-11-15T16:22:20;1.88;;;1.20;;
27039;SDS011;14589;51.578;7.306;2022-11-15T16:24:46;3.47;;;1.27;;
27039;SDS011;14589;51.578;7.306;2022-11-15T16:27:14;2.38;;;1.10;;
27039;SDS011;14589;51.578;7.306;2022-11-15T16:29:53;2.08;;;1.27;;
27039;SDS011;14589;51.578;7.306;2022-11-15T16:32:19;1.65;;;1.20;;
27039;SDS011;14589;51.578;7.306;2022-11-15T16:34:44;3.15;;;1.42;;
27039;SDS011;14589;51.578;7.306;2022-11-15T16:37:22;3.78;;;1.60;;
27039;SDS011;14589;51.578;7.306;2022-11-15T16:39:49;2.78;;;1.35;;
27039;SDS011;14589;51.578;7.306;2022-11-15T16:42:15;1.40;;;1.13;;
27039;SDS011;14589;51.578;7.306;2022-11-15T16:44:40;2.40;;;1.20;;
27039;SDS011;14589;51.578;7.306;2022-11-15T16:47:11;2.08;;;1.30;;
27039;SDS011;14589;51.578;7.306;2022-11-15T16:49:42;1.92;;;1.00;;
27039;SDS011;14589;51.578;7.306;2022-11-15T16:52:08;3.33;;;1.38;;
27039;SDS011;14589;51.578;7.306;2022-11-15T16:54:33;3.83;;;1.35;;
27039;SDS011;14589;51.578;7.306;2022-11-15T16:56:58;1.83;;;1.40;;
27039;SDS011;14589;51.578;7.306;2022-11-15T16:59:24;2.45;;;1.05;;
27039;SDS011;14589;51.578;7.306;2022-11-15T17:01:49;1.77;;;1.33;;
27039;SDS011;14589;51.578;7.306;2022-11-15T17:04:17;3.28;;;1.35;;
27039;SDS011;14589;51.578;7.306;2022-11-15T17:06:45;1.55;;;1.40;;
27039;SDS011;14589;51.578;7.306;2022-11-15T17:09:20;1.77;;;1.20;;
27039;SDS011;14589;51.578;7.306;2022-11-15T17:11:49;1.77;;;1.35;;
27039;SDS011;14589;51.578;7.306;2022-11-15T17:14:18;1.38;;;1.10;;
27039;SDS011;14589;51.578;7.306;2022-11-15T17:16:43;3.78;;;1.50;;
27039;SDS011;14589;51.578;7.306;2022-11-15T17:19:12;2.15;;;1.35;;
27039;SDS011;14589;51.578;7.306;2022-11-15T17:21:39;1.30;;;1.20;;
27039;SDS011;14589;51.578;7.306;2022-11-15T17:24:07;2.35;;;1.45;;
27039;SDS011;14589;51.578;7.306;2022-11-15T17:26:36;2.58;;;1.00;;
27039;SDS011;14589;51.578;7.306;2022-11-15T17:29:03;1.40;;;1.10;;
27039;SDS011;14589;51.578;7.306;2022-11-15T17:31:32;1.83;;;1.40;;
27039;SDS011;14589;51.578;7.306;2022-11-15T17:34:06;6.22;;;1.25;;
27039;SDS011;14589;51.578;7.306;2022-11-15T17:36:42;2.17;;;1.33;;
27039;SDS011;14589;51.578;7.306;2022-11-15T17:39:07;2.40;;;1.42;;
27039;SDS011;14589;51.578;7.306;2022-11-15T17:41:35;2.83;;;1.40;;
27039;SDS011;14589;51.578;7.306;2022-11-15T17:44:01;3.40;;;1.50;;
27039;SDS011;14589;51.578;7.306;2022-11-15T17:49:03;3.78;;;1.60;;
27039;SDS011;14589;51.578;7.306;2022-11-15T17:51:28;2.55;;;1.30;;
27039;SDS011;14589;51.578;7.306;2022-11-15T17:53:54;1.58;;;1.17;;
27039;SDS011;14589;51.578;7.306;2022-11-15T17:56:27;1.40;;;1.30;;
27039;SDS011;14589;51.578;7.306;2022-11-15T17:58:56;3.03;;;1.70;;
27039;SDS011;14589;51.578;7.306;2022-11-15T18:03:55;1.80;;;1.38;;
27039;SDS011;14589;51.578;7.306;2022-11-15T18:06:25;3.17;;;1.48;;
27039;SDS011;14589;51.578;7.306;2022-11-15T18:08:53;3.47;;;1.63;;
27039;SDS011;14589;51.578;7.306;2022-11-15T18:11:28;3.08;;;1.45;;
27039;SDS011;14589;51.578;7.306;2022-11-15T18:13:56;1.92;;;1.30;;
27039;SDS011;14589;51.578;7.306;2022-11-15T18:16:23;2.00;;;1.60;;
27039;SDS011;14589;51.578;7.306;2022-11-15T18:18:52;4.85;;;1.63;;
27039;SDS011;14589;51.578;7.306;2022-11-15T18:21:19;2.65;;;1.80;;
27039;SDS011;14589;51.578;7.306;2022-11-15T18:23:52;2.70;;;1.75;;
27039;SDS011;14589;51.578;7.306;2022-11-15T18:28:56;1.58;;;1.45;;
27039;SDS011;14589;51.578;7.306;2022-11-15T18:31:28;4.15;;;1.95;;
27039;SDS011;14589;51.578;7.306;2022-11-15T18:33:56;2.20;;;1.40;;
27039;SDS011;14589;51.578;7.306;2022-11-15T18:36:32;3.13;;;1.60;;
27039;SDS011;14589;51.578;7.306;2022-11-15T18:39:00;2.63;;;1.83;;
27039;SDS011;14589;51.578;7.306;2022-11-15T18:41:31;7.18;;;3.83;;
27039;SDS011;14589;51.578;7.306;2022-11-15T18:43:59;5.57;;;2.35;;
27039;SDS011;14589;51.578;7.306;2022-11-15T18:46:32;3.42;;;1.92;;
27039;SDS011;14589;51.578;7.306;2022-11-15T18:48:59;4.80;;;2.58;;
27039;SDS011;14589;51.578;7.306;2022-11-15T18:51:27;6.38;;;1.95;;
27039;SDS011;14589;51.578;7.306;2022-11-15T18:54:00;2.20;;;1.58;;
27039;SDS011;14589;51.578;7.306;2022-11-15T18:56:27;2.85;;;1.60;;
27039;SDS011;14589;51.578;7.306;2022-11-15T18:58:54;3.20;;;2.25;;
27039;SDS011;14589;51.578;7.306;2022-11-15T19:01:33;4.97;;;2.10;;
27039;SDS011;14589;51.578;7.306;2022-11-15T19:04:08;3.03;;;1.83;;
27039;SDS011;14589;51.578;7.306;2022-11-15T19:06:36;4.43;;;2.33;;
27039;SDS011;14589;51.578;7.306;2022-11-15T19:09:06;1.73;;;1.42;;
27039;SDS011;14589;51.578;7.306;2022-11-15T19:11:36;1.90;;;1.50;;
27039;SDS011;14589;51.578;7.306;2022-11-15T19:14:10;4.78;;;2.53;;
27039;SDS011;14589;51.578;7.306;2022-11-15T19:16:37;2.72;;;2.00;;
27039;SDS011;14589;51.578;7.306;2022-11-15T19:19:07;2.75;;;1.55;;
27039;SDS011;14589;51.578;7.306;2022-11-15T19:24:06;3.10;;;1.77;;
27039;SDS011;14589;51.578;7.306;2022-11-15T19:26:31;3.35;;;1.50;;
27039;SDS011;14589;51.578;7.306;2022-11-15T19:28:59;1.73;;;1.63;;
27039;SDS011;14589;51.578;7.306;2022-11-15T19:31:26;3.50;;;1.70;;
27039;SDS011;14589;51.578;7.306;2022-11-15T19:33:56;2.05;;;1.60;;
27039;SDS011;14589;51.578;7.306;2022-11-15T19:36:36;1.90;;;1.50;;
27039;SDS011;14589;51.578;7.306;2022-11-15T19:39:06;3.50;;;1.70;;
27039;SDS011;14589;51.578;7.306;2022-11-15T19:41:34;1.70;;;1.60;;
27039;SDS011;14589;51.578;7.306;2022-11-15T19:44:20;4.75;;;2.63;;
27039;SDS011;14589;51.578;7.306;2022-11-15T19:46:50;2.17;;;1.52;;
27039;SDS011;14589;51.578;7.306;2022-11-15T19:49:18;2.72;;;1.20;;
27039;SDS011;14589;51.578;7.306;2022-11-15T19:51:43;6.07;;;1.80;;
27039;SDS011;14589;51.578;7.306;2022-11-15T19:54:11;5.05;;;2.63;;